sensor_id;sensor_type;location;lat;lon;timestamp;P1;durP1;ratioP1;P2;durP2;ratioP2
74995;SDS011;63545;51.690;5.202;2024-03-02T00:00:41;3.27;;;0.70;;
74995;SDS011;63545;51.690;5.202;2024-03-02T00:03:06;4.27;;;0.90;;
74995;SDS011;63545;51.690;5.202;2024-03-02T00:05:34;1.45;;;0.70;;
74995;SDS011;63545;51.690;5.202;2024-03-02T00:07:59;0.90;;;0.70;;
74995;SDS011;63545;51.690;5.202;2024-03-02T00:10:26;2.40;;;0.77;;
74995;SDS011;63545;51.690;5.202;2024-03-02T00:13:10;1.45;;;0.60;;
74995;SDS011;63545;51.690;5.202;2024-03-02T00:18:12;0.98;;;0.70;;
74995;SDS011;63545;51.690;5.202;2024-03-02T00:20:40;0.97;;;0.60;;
74995;SDS011;63545;51.690;5.202;2024-03-02T00:23:06;1.20;;;0.65;;
74995;SDS011;63545;51.690;5.202;2024-03-02T00:25:40;0.80;;;0.70;;
74995;SDS011;63545;51.690;5.202;2024-03-02T00:28:13;0.70;;;0.60;;
74995;SDS011;63545;51.690;5.202;2024-03-02T00:33:22;0.80;;;0.70;;
74995;SDS011;63545;51.690;5.202;2024-03-02T00:35:48;1.13;;;0.73;;
74995;SDS011;63545;51.690;5.202;2024-03-02T00:38:14;0.98;;;0.70;;
74995;SDS011;63545;51.690;5.202;2024-03-02T00:40:40;3.22;;;0.80;;
74995;SDS011;63545;51.690;5.202;2024-03-02T00:43:07;1.88;;;0.80;;
74995;SDS011;63545;51.690;5.202;2024-03-02T00:45:43;0.93;;;0.60;;
74995;SDS011;63545;51.690;5.202;2024-03-02T00:48:08;2.50;;;0.90;;
74995;SDS011;63545;51.690;5.202;2024-03-02T00:50:33;2.05;;;0.93;;
74995;SDS011;63545;51.690;5.202;2024-03-02T00:52:59;2.47;;;1.00;;
74995;SDS011;63545;51.690;5.202;2024-03-02T00:55:25;1.50;;;0.80;;
74995;SDS011;63545;51.690;5.202;2024-03-02T00:57:50;1.55;;;0.80;;
74995;SDS011;63545;51.690;5.202;2024-03-02T01:00:16;1.37;;;0.90;;
74995;SDS011;63545;51.690;5.202;2024-03-02T01:02:43;2.77;;;0.83;;
74995;SDS011;63545;51.690;5.202;2024-03-02T01:05:10;1.20;;;0.80;;
74995;SDS011;63545;51.690;5.202;2024-03-02T01:07:37;1.77;;;0.93;;
74995;SDS011;63545;51.690;5.202;2024-03-02T01:10:03;0.75;;;0.60;;
74995;SDS011;63545;51.690;5.202;2024-03-02T01:12:28;1.45;;;0.90;;
74995;SDS011;63545;51.690;5.202;2024-03-02T01:14:54;1.20;;;0.80;;
74995;SDS011;63545;51.690;5.202;2024-03-02T01:17:19;1.83;;;0.90;;
74995;SDS011;63545;51.690;5.202;2024-03-02T01:19:44;1.20;;;1.07;;
74995;SDS011;63545;51.690;5.202;2024-03-02T01:22:10;1.10;;;0.90;;
74995;SDS011;63545;51.690;5.202;2024-03-02T01:24:35;1.10;;;0.90;;
74995;SDS011;63545;51.690;5.202;2024-03-02T01:27:01;2.45;;;0.88;;
74995;SDS011;63545;51.690;5.202;2024-03-02T01:29:26;1.30;;;1.00;;
74995;SDS011;63545;51.690;5.202;2024-03-02T01:31:51;1.17;;;0.83;;
74995;SDS011;63545;51.690;5.202;2024-03-02T01:34:18;1.27;;;0.90;;
74995;SDS011;63545;51.690;5.202;2024-03-02T01:36:43;1.40;;;0.90;;
74995;SDS011;63545;51.690;5.202;2024-03-02T01:39:09;1.13;;;0.90;;
74995;SDS011;63545;51.690;5.202;2024-03-02T01:41:34;2.47;;;1.10;;
74995;SDS011;63545;51.690;5.202;2024-03-02T01:44:00;2.45;;;1.00;;
74995;SDS011;63545;51.690;5.202;2024-03-02T01:46:25;1.80;;;0.90;;
74995;SDS011;63545;51.690;5.202;2024-03-02T01:48:51;1.10;;;1.00;;
74995;SDS011;63545;51.690;5.202;2024-03-02T01:51:16;1.23;;;1.00;;
74995;SDS011;63545;51.690;5.202;2024-03-02T01:53:41;1.63;;;0.70;;
74995;SDS011;63545;51.690;5.202;2024-03-02T01:56:07;1.53;;;1.00;;
74995;SDS011;63545;51.690;5.202;2024-03-02T01:58:32;5.37;;;1.00;;
74995;SDS011;63545;51.690;5.202;2024-03-02T02:00:57;0.90;;;0.70;;
74995;SDS011;63545;51.690;5.202;2024-03-02T02:03:23;2.40;;;0.93;;
74995;SDS011;63545;51.690;5.202;2024-03-02T02:05:48;1.60;;;0.87;;
74995;SDS011;63545;51.690;5.202;2024-03-02T02:08:13;1.87;;;1.00;;
74995;SDS011;63545;51.690;5.202;2024-03-02T02:10:39;0.97;;;0.77;;
74995;SDS011;63545;51.690;5.202;2024-03-02T02:13:04;1.20;;;0.70;;
74995;SDS011;63545;51.690;5.202;2024-03-02T02:15:30;1.20;;;0.83;;
74995;SDS011;63545;51.690;5.202;2024-03-02T02:17:56;1.05;;;0.70;;
74995;SDS011;63545;51.690;5.202;2024-03-02T02:20:22;1.67;;;0.70;;
74995;SDS011;63545;51.690;5.202;2024-03-02T02:25:20;1.98;;;0.80;;
74995;SDS011;63545;51.690;5.202;2024-03-02T02:27:45;2.10;;;0.90;;
74995;SDS011;63545;51.690;5.202;2024-03-02T02:30:11;1.00;;;0.80;;
74995;SDS011;63545;51.690;5.202;2024-03-02T02:32:37;0.90;;;0.80;;
74995;SDS011;63545;51.690;5.202;2024-03-02T02:35:02;0.90;;;0.80;;
74995;SDS011;63545;51.690;5.202;2024-03-02T02:37:28;2.28;;;0.73;;
74995;SDS011;63545;51.690;5.202;2024-03-02T02:39:53;1.50;;;0.70;;
74995;SDS011;63545;51.690;5.202;2024-03-02T02:42:19;1.00;;;0.77;;
74995;SDS011;63545;51.690;5.202;2024-03-02T02:44:44;1.10;;;0.83;;
74995;SDS011;63545;51.690;5.202;2024-03-02T02:47:09;1.07;;;0.80;;
74995;SDS011;63545;51.690;5.202;2024-03-02T02:49:35;0.83;;;0.70;;
74995;SDS011;63545;51.690;5.202;2024-03-02T02:52:01;0.85;;;0.70;;
74995;SDS011;63545;51.690;5.202;2024-03-02T02:54:26;3.50;;;0.95;;
74995;SDS011;63545;51.690;5.202;2024-03-02T02:56:52;0.80;;;0.70;;
74995;SDS011;63545;51.690;5.202;2024-03-02T02:59:17;1.20;;;0.80;;
74995;SDS011;63545;51.690;5.202;2024-03-02T03:01:42;2.17;;;1.07;;
74995;SDS011;63545;51.690;5.202;2024-03-02T03:04:08;1.20;;;0.80;;
74995;SDS011;63545;51.690;5.202;2024-03-02T03:06:33;1.70;;;0.83;;
74995;SDS011;63545;51.690;5.202;2024-03-02T03:08:58;3.30;;;0.83;;
74995;SDS011;63545;51.690;5.202;2024-03-02T03:11:24;3.87;;;0.90;;
74995;SDS011;63545;51.690;5.202;2024-03-02T03:13:51;2.22;;;0.73;;
74995;SDS011;63545;51.690;5.202;2024-03-02T03:16:16;1.20;;;1.03;;
74995;SDS011;63545;51.690;5.202;2024-03-02T03:18:41;2.60;;;0.80;;
74995;SDS011;63545;51.690;5.202;2024-03-02T03:21:07;4.50;;;0.90;;
74995;SDS011;63545;51.690;5.202;2024-03-02T03:23:32;1.30;;;1.03;;
74995;SDS011;63545;51.690;5.202;2024-03-02T03:25:57;0.95;;;0.65;;
74995;SDS011;63545;51.690;5.202;2024-03-02T03:28:23;1.43;;;0.80;;
74995;SDS011;63545;51.690;5.202;2024-03-02T03:30:48;1.30;;;1.03;;
74995;SDS011;63545;51.690;5.202;2024-03-02T03:33:13;1.10;;;1.00;;
74995;SDS011;63545;51.690;5.202;2024-03-02T03:35:39;2.17;;;0.83;;
74995;SDS011;63545;51.690;5.202;2024-03-02T03:38:04;3.63;;;1.17;;
74995;SDS011;63545;51.690;5.202;2024-03-02T03:40:29;1.20;;;1.10;;
74995;SDS011;63545;51.690;5.202;2024-03-02T03:42:55;1.23;;;0.85;;
74995;SDS011;63545;51.690;5.202;2024-03-02T03:45:21;2.70;;;1.00;;
74995;SDS011;63545;51.690;5.202;2024-03-02T03:47:47;2.45;;;1.10;;
74995;SDS011;63545;51.690;5.202;2024-03-02T03:50:12;3.17;;;0.80;;
74995;SDS011;63545;51.690;5.202;2024-03-02T03:52:38;1.20;;;1.00;;
74995;SDS011;63545;51.690;5.202;2024-03-02T03:55:03;1.10;;;1.00;;
74995;SDS011;63545;51.690;5.202;2024-03-02T03:57:30;1.30;;;0.80;;
74995;SDS011;63545;51.690;5.202;2024-03-02T03:59:55;2.00;;;0.90;;
74995;SDS011;63545;51.690;5.202;2024-03-02T04:02:20;2.33;;;1.00;;
74995;SDS011;63545;51.690;5.202;2024-03-02T04:04:46;1.53;;;1.00;;
74995;SDS011;63545;51.690;5.202;2024-03-02T04:07:11;2.83;;;0.90;;
74995;SDS011;63545;51.690;5.202;2024-03-02T04:09:37;2.40;;;0.70;;
74995;SDS011;63545;51.690;5.202;2024-03-02T04:12:02;1.67;;;0.80;;
74995;SDS011;63545;51.690;5.202;2024-03-02T04:14:28;0.87;;;0.60;;
74995;SDS011;63545;51.690;5.202;2024-03-02T04:16:53;1.20;;;0.93;;
74995;SDS011;63545;51.690;5.202;2024-03-02T04:19:18;3.83;;;0.80;;
74995;SDS011;63545;51.690;5.202;2024-03-02T04:21:48;1.80;;;0.80;;
74995;SDS011;63545;51.690;5.202;2024-03-02T04:24:13;2.77;;;0.90;;
74995;SDS011;63545;51.690;5.202;2024-03-02T04:26:39;1.13;;;0.60;;
74995;SDS011;63545;51.690;5.202;2024-03-02T04:29:04;2.77;;;0.60;;
74995;SDS011;63545;51.690;5.202;2024-03-02T04:31:29;3.30;;;0.87;;
74995;SDS011;63545;51.690;5.202;2024-03-02T04:33:55;2.30;;;0.73;;
74995;SDS011;63545;51.690;5.202;2024-03-02T04:36:20;1.73;;;0.70;;
74995;SDS011;63545;51.690;5.202;2024-03-02T04:38:46;3.72;;;0.70;;
74995;SDS011;63545;51.690;5.202;2024-03-02T04:41:11;1.80;;;0.97;;
74995;SDS011;63545;51.690;5.202;2024-03-02T04:43:36;0.80;;;0.70;;
74995;SDS011;63545;51.690;5.202;2024-03-02T04:46:02;3.10;;;0.90;;
74995;SDS011;63545;51.690;5.202;2024-03-02T04:48:27;1.90;;;0.70;;
74995;SDS011;63545;51.690;5.202;2024-03-02T04:50:53;2.10;;;0.60;;
74995;SDS011;63545;51.690;5.202;2024-03-02T04:53:18;0.90;;;0.50;;
74995;SDS011;63545;51.690;5.202;2024-03-02T04:55:44;2.47;;;0.80;;
74995;SDS011;63545;51.690;5.202;2024-03-02T04:58:09;1.50;;;0.80;;
74995;SDS011;63545;51.690;5.202;2024-03-02T05:00:34;1.88;;;0.80;;
74995;SDS011;63545;51.690;5.202;2024-03-02T05:03:01;2.57;;;0.80;;
74995;SDS011;63545;51.690;5.202;2024-03-02T05:05:26;2.05;;;0.70;;
74995;SDS011;63545;51.690;5.202;2024-03-02T05:07:52;1.40;;;0.70;;
74995;SDS011;63545;51.690;5.202;2024-03-02T05:10:17;2.65;;;0.70;;
74995;SDS011;63545;51.690;5.202;2024-03-02T05:12:43;3.53;;;0.73;;
74995;SDS011;63545;51.690;5.202;2024-03-02T05:15:12;2.00;;;0.70;;
74995;SDS011;63545;51.690;5.202;2024-03-02T05:17:41;3.47;;;0.85;;
74995;SDS011;63545;51.690;5.202;2024-03-02T05:20:09;1.92;;;0.75;;
74995;SDS011;63545;51.690;5.202;2024-03-02T05:22:36;4.57;;;0.80;;
74995;SDS011;63545;51.690;5.202;2024-03-02T05:25:02;2.20;;;0.80;;
74995;SDS011;63545;51.690;5.202;2024-03-02T05:27:28;2.00;;;0.80;;
74995;SDS011;63545;51.690;5.202;2024-03-02T05:29:53;1.63;;;0.90;;
74995;SDS011;63545;51.690;5.202;2024-03-02T05:32:18;1.33;;;0.70;;
74995;SDS011;63545;51.690;5.202;2024-03-02T05:34:44;2.97;;;0.80;;
74995;SDS011;63545;51.690;5.202;2024-03-02T05:37:09;2.25;;;0.60;;
74995;SDS011;63545;51.690;5.202;2024-03-02T05:39:34;1.83;;;0.93;;
74995;SDS011;63545;51.690;5.202;2024-03-02T05:42:00;1.27;;;0.80;;
74995;SDS011;63545;51.690;5.202;2024-03-02T05:44:26;1.23;;;0.80;;
74995;SDS011;63545;51.690;5.202;2024-03-02T05:46:51;2.22;;;1.02;;
74995;SDS011;63545;51.690;5.202;2024-03-02T05:49:17;6.97;;;1.10;;
74995;SDS011;63545;51.690;5.202;2024-03-02T05:51:42;4.22;;;0.85;;
74995;SDS011;63545;51.690;5.202;2024-03-02T05:54:08;5.13;;;0.93;;
74995;SDS011;63545;51.690;5.202;2024-03-02T05:56:33;3.23;;;0.90;;
74995;SDS011;63545;51.690;5.202;2024-03-02T05:58:59;2.80;;;0.90;;
74995;SDS011;63545;51.690;5.202;2024-03-02T06:01:44;2.35;;;1.05;;
74995;SDS011;63545;51.690;5.202;2024-03-02T06:04:11;1.70;;;0.77;;
74995;SDS011;63545;51.690;5.202;2024-03-02T06:06:37;1.60;;;1.00;;
74995;SDS011;63545;51.690;5.202;2024-03-02T06:09:02;4.60;;;1.27;;
74995;SDS011;63545;51.690;5.202;2024-03-02T06:11:38;0.93;;;0.70;;
74995;SDS011;63545;51.690;5.202;2024-03-02T06:14:05;1.35;;;0.80;;
74995;SDS011;63545;51.690;5.202;2024-03-02T06:16:32;2.72;;;0.70;;
74995;SDS011;63545;51.690;5.202;2024-03-02T06:18:58;2.67;;;0.80;;
74995;SDS011;63545;51.690;5.202;2024-03-02T06:21:23;4.70;;;0.97;;
74995;SDS011;63545;51.690;5.202;2024-03-02T06:23:49;1.48;;;1.00;;
74995;SDS011;63545;51.690;5.202;2024-03-02T06:26:14;3.73;;;0.90;;
74995;SDS011;63545;51.690;5.202;2024-03-02T06:28:40;1.90;;;1.00;;
74995;SDS011;63545;51.690;5.202;2024-03-02T06:31:05;2.57;;;1.00;;
74995;SDS011;63545;51.690;5.202;2024-03-02T06:33:31;2.10;;;0.90;;
74995;SDS011;63545;51.690;5.202;2024-03-02T06:35:56;2.58;;;0.80;;
74995;SDS011;63545;51.690;5.202;2024-03-02T06:38:21;2.67;;;0.70;;
74995;SDS011;63545;51.690;5.202;2024-03-02T06:40:47;4.07;;;0.93;;
74995;SDS011;63545;51.690;5.202;2024-03-02T06:43:12;2.30;;;1.07;;
74995;SDS011;63545;51.690;5.202;2024-03-02T06:45:38;3.30;;;0.80;;
74995;SDS011;63545;51.690;5.202;2024-03-02T06:48:03;2.80;;;0.70;;
74995;SDS011;63545;51.690;5.202;2024-03-02T06:50:28;0.90;;;0.80;;
74995;SDS011;63545;51.690;5.202;2024-03-02T06:52:54;1.93;;;0.90;;
74995;SDS011;63545;51.690;5.202;2024-03-02T06:55:21;2.90;;;1.05;;
74995;SDS011;63545;51.690;5.202;2024-03-02T06:57:46;0.70;;;0.60;;
74995;SDS011;63545;51.690;5.202;2024-03-02T07:00:12;4.00;;;0.77;;
74995;SDS011;63545;51.690;5.202;2024-03-02T07:02:38;1.10;;;0.70;;
74995;SDS011;63545;51.690;5.202;2024-03-02T07:05:06;4.78;;;1.00;;
74995;SDS011;63545;51.690;5.202;2024-03-02T07:07:32;2.43;;;0.90;;
74995;SDS011;63545;51.690;5.202;2024-03-02T07:09:58;1.58;;;0.82;;
74995;SDS011;63545;51.690;5.202;2024-03-02T07:12:23;2.17;;;0.63;;
74995;SDS011;63545;51.690;5.202;2024-03-02T07:14:49;2.40;;;0.93;;
74995;SDS011;63545;51.690;5.202;2024-03-02T07:17:29;3.13;;;0.70;;
74995;SDS011;63545;51.690;5.202;2024-03-02T07:19:58;4.47;;;0.93;;
74995;SDS011;63545;51.690;5.202;2024-03-02T07:22:23;4.93;;;0.77;;
74995;SDS011;63545;51.690;5.202;2024-03-02T07:24:49;2.40;;;0.88;;
74995;SDS011;63545;51.690;5.202;2024-03-02T07:27:14;3.23;;;0.93;;
74995;SDS011;63545;51.690;5.202;2024-03-02T07:29:41;1.17;;;0.88;;
74995;SDS011;63545;51.690;5.202;2024-03-02T07:32:07;2.33;;;0.67;;
74995;SDS011;63545;51.690;5.202;2024-03-02T07:34:34;2.05;;;1.20;;
74995;SDS011;63545;51.690;5.202;2024-03-02T07:36:59;3.33;;;0.75;;
74995;SDS011;63545;51.690;5.202;2024-03-02T07:39:24;4.33;;;0.83;;
74995;SDS011;63545;51.690;5.202;2024-03-02T07:41:50;2.20;;;1.00;;
74995;SDS011;63545;51.690;5.202;2024-03-02T07:44:15;2.70;;;0.95;;
74995;SDS011;63545;51.690;5.202;2024-03-02T07:46:41;2.80;;;0.80;;
74995;SDS011;63545;51.690;5.202;2024-03-02T07:49:07;2.03;;;0.77;;
74995;SDS011;63545;51.690;5.202;2024-03-02T07:51:33;1.73;;;0.80;;
74995;SDS011;63545;51.690;5.202;2024-03-02T07:53:58;1.95;;;0.70;;
74995;SDS011;63545;51.690;5.202;2024-03-02T07:56:24;3.78;;;1.23;;
74995;SDS011;63545;51.690;5.202;2024-03-02T07:58:50;2.23;;;0.80;;
74995;SDS011;63545;51.690;5.202;2024-03-02T08:01:15;2.97;;;0.70;;
74995;SDS011;63545;51.690;5.202;2024-03-02T08:03:40;5.10;;;0.90;;
74995;SDS011;63545;51.690;5.202;2024-03-02T08:06:06;2.43;;;0.70;;
74995;SDS011;63545;51.690;5.202;2024-03-02T08:08:31;4.47;;;0.90;;
74995;SDS011;63545;51.690;5.202;2024-03-02T08:10:57;3.22;;;0.90;;
74995;SDS011;63545;51.690;5.202;2024-03-02T08:13:22;2.63;;;1.20;;
74995;SDS011;63545;51.690;5.202;2024-03-02T08:15:50;3.00;;;1.07;;
74995;SDS011;63545;51.690;5.202;2024-03-02T08:18:16;2.70;;;0.85;;
74995;SDS011;63545;51.690;5.202;2024-03-02T08:20:41;1.80;;;0.80;;
74995;SDS011;63545;51.690;5.202;2024-03-02T08:23:07;2.70;;;1.00;;
74995;SDS011;63545;51.690;5.202;2024-03-02T08:25:33;3.05;;;0.90;;
74995;SDS011;63545;51.690;5.202;2024-03-02T08:27:58;4.70;;;0.87;;
74995;SDS011;63545;51.690;5.202;2024-03-02T08:30:24;1.15;;;0.70;;
74995;SDS011;63545;51.690;5.202;2024-03-02T08:32:49;2.67;;;1.00;;
74995;SDS011;63545;51.690;5.202;2024-03-02T08:35:15;2.77;;;0.80;;
74995;SDS011;63545;51.690;5.202;2024-03-02T08:37:41;1.83;;;1.00;;
74995;SDS011;63545;51.690;5.202;2024-03-02T08:40:07;6.55;;;1.10;;
74995;SDS011;63545;51.690;5.202;2024-03-02T08:42:33;4.30;;;1.05;;
74995;SDS011;63545;51.690;5.202;2024-03-02T08:44:58;6.37;;;1.63;;
74995;SDS011;63545;51.690;5.202;2024-03-02T08:47:25;6.05;;;1.40;;
74995;SDS011;63545;51.690;5.202;2024-03-02T08:49:51;4.10;;;1.30;;
74995;SDS011;63545;51.690;5.202;2024-03-02T08:52:16;5.93;;;1.13;;
74995;SDS011;63545;51.690;5.202;2024-03-02T08:54:42;2.77;;;0.90;;
74995;SDS011;63545;51.690;5.202;2024-03-02T08:57:07;3.35;;;1.20;;
74995;SDS011;63545;51.690;5.202;2024-03-02T08:59:33;4.67;;;1.13;;
74995;SDS011;63545;51.690;5.202;2024-03-02T09:01:58;3.03;;;1.13;;
74995;SDS011;63545;51.690;5.202;2024-03-02T09:04:24;3.25;;;1.20;;
74995;SDS011;63545;51.690;5.202;2024-03-02T09:06:49;6.67;;;1.27;;
74995;SDS011;63545;51.690;5.202;2024-03-02T09:09:15;5.57;;;1.00;;
74995;SDS011;63545;51.690;5.202;2024-03-02T09:11:40;2.90;;;0.90;;
74995;SDS011;63545;51.690;5.202;2024-03-02T09:14:06;3.67;;;1.20;;
74995;SDS011;63545;51.690;5.202;2024-03-02T09:16:31;2.08;;;1.10;;
74995;SDS011;63545;51.690;5.202;2024-03-02T09:18:57;4.67;;;1.13;;
74995;SDS011;63545;51.690;5.202;2024-03-02T09:21:22;4.43;;;0.93;;
74995;SDS011;63545;51.690;5.202;2024-03-02T09:23:48;4.00;;;0.90;;
74995;SDS011;63545;51.690;5.202;2024-03-02T09:26:13;5.37;;;1.13;;
74995;SDS011;63545;51.690;5.202;2024-03-02T09:28:43;6.82;;;1.27;;
74995;SDS011;63545;51.690;5.202;2024-03-02T09:31:09;4.23;;;1.03;;
74995;SDS011;63545;51.690;5.202;2024-03-02T09:33:34;7.30;;;1.00;;
74995;SDS011;63545;51.690;5.202;2024-03-02T09:35:59;8.27;;;1.10;;
74995;SDS011;63545;51.690;5.202;2024-03-02T09:38:25;6.13;;;1.03;;
74995;SDS011;63545;51.690;5.202;2024-03-02T09:40:50;7.47;;;1.47;;
74995;SDS011;63545;51.690;5.202;2024-03-02T09:43:16;4.07;;;0.90;;
74995;SDS011;63545;51.690;5.202;2024-03-02T09:45:41;7.07;;;1.45;;
74995;SDS011;63545;51.690;5.202;2024-03-02T09:48:07;4.13;;;0.93;;
74995;SDS011;63545;51.690;5.202;2024-03-02T09:50:32;4.78;;;0.98;;
74995;SDS011;63545;51.690;5.202;2024-03-02T09:52:58;5.80;;;1.20;;
74995;SDS011;63545;51.690;5.202;2024-03-02T09:55:24;4.53;;;1.00;;
74995;SDS011;63545;51.690;5.202;2024-03-02T09:57:50;3.35;;;1.20;;
74995;SDS011;63545;51.690;5.202;2024-03-02T10:00:16;4.30;;;1.00;;
74995;SDS011;63545;51.690;5.202;2024-03-02T10:02:42;5.07;;;1.20;;
74995;SDS011;63545;51.690;5.202;2024-03-02T10:05:10;6.00;;;1.27;;
74995;SDS011;63545;51.690;5.202;2024-03-02T10:07:36;2.67;;;0.98;;
74995;SDS011;63545;51.690;5.202;2024-03-02T10:10:12;3.07;;;1.03;;
74995;SDS011;63545;51.690;5.202;2024-03-02T10:12:38;2.70;;;1.00;;
74995;SDS011;63545;51.690;5.202;2024-03-02T10:15:04;2.87;;;0.90;;
74995;SDS011;63545;51.690;5.202;2024-03-02T10:17:30;5.45;;;1.10;;
74995;SDS011;63545;51.690;5.202;2024-03-02T10:19:56;4.07;;;1.37;;
74995;SDS011;63545;51.690;5.202;2024-03-02T10:22:22;9.10;;;1.20;;
74995;SDS011;63545;51.690;5.202;2024-03-02T10:24:48;5.67;;;1.57;;
74995;SDS011;63545;51.690;5.202;2024-03-02T10:27:17;5.70;;;1.20;;
74995;SDS011;63545;51.690;5.202;2024-03-02T10:29:46;4.17;;;1.10;;
74995;SDS011;63545;51.690;5.202;2024-03-02T10:32:12;2.80;;;0.90;;
74995;SDS011;63545;51.690;5.202;2024-03-02T10:34:41;9.50;;;1.40;;
74995;SDS011;63545;51.690;5.202;2024-03-02T10:37:10;3.17;;;1.00;;
74995;SDS011;63545;51.690;5.202;2024-03-02T10:39:36;4.60;;;0.90;;
74995;SDS011;63545;51.690;5.202;2024-03-02T10:42:03;2.45;;;0.90;;
74995;SDS011;63545;51.690;5.202;2024-03-02T10:44:28;5.73;;;0.97;;
74995;SDS011;63545;51.690;5.202;2024-03-02T10:46:55;5.30;;;1.20;;
74995;SDS011;63545;51.690;5.202;2024-03-02T10:49:21;8.02;;;1.23;;
74995;SDS011;63545;51.690;5.202;2024-03-02T10:51:48;3.38;;;1.15;;
74995;SDS011;63545;51.690;5.202;2024-03-02T10:54:13;8.23;;;1.20;;
74995;SDS011;63545;51.690;5.202;2024-03-02T10:56:39;6.70;;;1.10;;
74995;SDS011;63545;51.690;5.202;2024-03-02T10:59:27;4.13;;;0.93;;
74995;SDS011;63545;51.690;5.202;2024-03-02T11:01:53;3.80;;;1.17;;
74995;SDS011;63545;51.690;5.202;2024-03-02T11:04:22;4.60;;;1.13;;
74995;SDS011;63545;51.690;5.202;2024-03-02T11:06:50;3.92;;;0.88;;
74995;SDS011;63545;51.690;5.202;2024-03-02T11:09:16;3.35;;;0.93;;
74995;SDS011;63545;51.690;5.202;2024-03-02T11:11:43;4.35;;;0.93;;
74995;SDS011;63545;51.690;5.202;2024-03-02T11:14:13;3.50;;;1.10;;
74995;SDS011;63545;51.690;5.202;2024-03-02T11:16:40;3.70;;;0.93;;
74995;SDS011;63545;51.690;5.202;2024-03-02T11:19:07;3.30;;;1.02;;
74995;SDS011;63545;51.690;5.202;2024-03-02T11:21:35;4.78;;;1.20;;
74995;SDS011;63545;51.690;5.202;2024-03-02T11:26:49;4.87;;;1.03;;
74995;SDS011;63545;51.690;5.202;2024-03-02T11:32:01;4.00;;;1.17;;
74995;SDS011;63545;51.690;5.202;2024-03-02T11:34:30;5.60;;;1.27;;
74995;SDS011;63545;51.690;5.202;2024-03-02T11:36:57;4.13;;;1.00;;
74995;SDS011;63545;51.690;5.202;2024-03-02T11:39:24;2.80;;;1.03;;
74995;SDS011;63545;51.690;5.202;2024-03-02T11:41:50;2.95;;;0.95;;
74995;SDS011;63545;51.690;5.202;2024-03-02T11:44:15;6.47;;;1.50;;
74995;SDS011;63545;51.690;5.202;2024-03-02T11:46:41;5.20;;;1.35;;
74995;SDS011;63545;51.690;5.202;2024-03-02T11:49:06;5.90;;;1.30;;
74995;SDS011;63545;51.690;5.202;2024-03-02T11:51:33;2.40;;;0.90;;
74995;SDS011;63545;51.690;5.202;2024-03-02T11:53:59;3.08;;;0.90;;
74995;SDS011;63545;51.690;5.202;2024-03-02T11:56:26;6.78;;;1.27;;
74995;SDS011;63545;51.690;5.202;2024-03-02T11:58:53;7.43;;;1.00;;
74995;SDS011;63545;51.690;5.202;2024-03-02T12:01:18;3.83;;;1.30;;
74995;SDS011;63545;51.690;5.202;2024-03-02T12:03:44;3.78;;;1.38;;
74995;SDS011;63545;51.690;5.202;2024-03-02T12:06:10;3.17;;;1.05;;
74995;SDS011;63545;51.690;5.202;2024-03-02T12:08:38;8.00;;;1.48;;
74995;SDS011;63545;51.690;5.202;2024-03-02T12:11:03;5.03;;;1.10;;
74995;SDS011;63545;51.690;5.202;2024-03-02T12:13:29;6.43;;;1.20;;
74995;SDS011;63545;51.690;5.202;2024-03-02T12:15:54;4.53;;;1.30;;
74995;SDS011;63545;51.690;5.202;2024-03-02T12:18:23;3.50;;;1.08;;
74995;SDS011;63545;51.690;5.202;2024-03-02T12:20:49;5.28;;;1.33;;
74995;SDS011;63545;51.690;5.202;2024-03-02T12:23:17;3.67;;;1.10;;
74995;SDS011;63545;51.690;5.202;2024-03-02T12:25:43;7.45;;;1.25;;
74995;SDS011;63545;51.690;5.202;2024-03-02T12:28:09;3.67;;;1.17;;
74995;SDS011;63545;51.690;5.202;2024-03-02T12:30:35;5.55;;;1.30;;
74995;SDS011;63545;51.690;5.202;2024-03-02T12:33:00;4.40;;;1.00;;
74995;SDS011;63545;51.690;5.202;2024-03-02T12:35:26;3.28;;;1.00;;
74995;SDS011;63545;51.690;5.202;2024-03-02T12:37:52;5.40;;;1.70;;
74995;SDS011;63545;51.690;5.202;2024-03-02T12:40:18;5.10;;;1.20;;
74995;SDS011;63545;51.690;5.202;2024-03-02T12:42:47;4.15;;;1.27;;
74995;SDS011;63545;51.690;5.202;2024-03-02T12:45:13;6.70;;;1.20;;
74995;SDS011;63545;51.690;5.202;2024-03-02T12:47:40;6.40;;;0.90;;
74995;SDS011;63545;51.690;5.202;2024-03-02T12:50:06;4.60;;;1.33;;
74995;SDS011;63545;51.690;5.202;2024-03-02T12:52:32;4.43;;;1.40;;
74995;SDS011;63545;51.690;5.202;2024-03-02T12:54:59;4.60;;;1.00;;
74995;SDS011;63545;51.690;5.202;2024-03-02T12:57:25;4.88;;;1.33;;
74995;SDS011;63545;51.690;5.202;2024-03-02T12:59:52;5.80;;;1.13;;
74995;SDS011;63545;51.690;5.202;2024-03-02T13:02:21;4.90;;;1.10;;
74995;SDS011;63545;51.690;5.202;2024-03-02T13:04:55;6.25;;;1.25;;
74995;SDS011;63545;51.690;5.202;2024-03-02T13:07:23;4.88;;;1.42;;
74995;SDS011;63545;51.690;5.202;2024-03-02T13:09:49;4.30;;;0.90;;
74995;SDS011;63545;51.690;5.202;2024-03-02T13:12:15;5.78;;;1.10;;
74995;SDS011;63545;51.690;5.202;2024-03-02T13:14:41;5.00;;;1.55;;
74995;SDS011;63545;51.690;5.202;2024-03-02T13:17:07;6.50;;;1.20;;
74995;SDS011;63545;51.690;5.202;2024-03-02T13:19:34;5.85;;;1.25;;
74995;SDS011;63545;51.690;5.202;2024-03-02T13:21:59;4.15;;;1.00;;
74995;SDS011;63545;51.690;5.202;2024-03-02T13:24:26;4.83;;;1.00;;
74995;SDS011;63545;51.690;5.202;2024-03-02T13:26:54;5.22;;;1.30;;
74995;SDS011;63545;51.690;5.202;2024-03-02T13:29:22;5.47;;;1.20;;
74995;SDS011;63545;51.690;5.202;2024-03-02T13:31:47;5.87;;;1.50;;
74995;SDS011;63545;51.690;5.202;2024-03-02T13:34:13;8.48;;;1.55;;
74995;SDS011;63545;51.690;5.202;2024-03-02T13:36:38;3.97;;;1.47;;
74995;SDS011;63545;51.690;5.202;2024-03-02T13:39:04;4.40;;;1.17;;
74995;SDS011;63545;51.690;5.202;2024-03-02T13:41:31;7.32;;;1.60;;
74995;SDS011;63545;51.690;5.202;2024-03-02T13:43:57;3.67;;;1.38;;
74995;SDS011;63545;51.690;5.202;2024-03-02T13:46:22;4.73;;;1.40;;
74995;SDS011;63545;51.690;5.202;2024-03-02T13:48:47;3.53;;;1.30;;
74995;SDS011;63545;51.690;5.202;2024-03-02T13:51:13;5.13;;;1.27;;
74995;SDS011;63545;51.690;5.202;2024-03-02T13:53:38;4.90;;;1.40;;
74995;SDS011;63545;51.690;5.202;2024-03-02T13:56:03;6.68;;;1.30;;
74995;SDS011;63545;51.690;5.202;2024-03-02T13:58:30;6.83;;;1.50;;
74995;SDS011;63545;51.690;5.202;2024-03-02T14:00:55;6.60;;;1.47;;
74995;SDS011;63545;51.690;5.202;2024-03-02T14:03:22;4.30;;;1.80;;
74995;SDS011;63545;51.690;5.202;2024-03-02T14:05:47;6.67;;;1.33;;
74995;SDS011;63545;51.690;5.202;2024-03-02T14:08:15;4.22;;;1.27;;
74995;SDS011;63545;51.690;5.202;2024-03-02T14:10:40;5.25;;;1.40;;
74995;SDS011;63545;51.690;5.202;2024-03-02T14:13:07;3.80;;;1.40;;
74995;SDS011;63545;51.690;5.202;2024-03-02T14:15:33;7.50;;;1.40;;
74995;SDS011;63545;51.690;5.202;2024-03-02T14:17:58;4.13;;;1.43;;
74995;SDS011;63545;51.690;5.202;2024-03-02T14:20:23;5.63;;;1.30;;
74995;SDS011;63545;51.690;5.202;2024-03-02T14:22:49;3.23;;;0.90;;
74995;SDS011;63545;51.690;5.202;2024-03-02T14:25:14;2.90;;;1.10;;
74995;SDS011;63545;51.690;5.202;2024-03-02T14:27:39;3.50;;;1.10;;
74995;SDS011;63545;51.690;5.202;2024-03-02T14:30:05;4.83;;;1.43;;
74995;SDS011;63545;51.690;5.202;2024-03-02T14:32:31;3.85;;;1.30;;
74995;SDS011;63545;51.690;5.202;2024-03-02T14:34:57;5.27;;;1.47;;
74995;SDS011;63545;51.690;5.202;2024-03-02T14:37:22;4.87;;;1.20;;
74995;SDS011;63545;51.690;5.202;2024-03-02T14:39:48;4.23;;;1.20;;
74995;SDS011;63545;51.690;5.202;2024-03-02T14:42:13;4.27;;;1.33;;
74995;SDS011;63545;51.690;5.202;2024-03-02T14:44:38;3.90;;;1.25;;
74995;SDS011;63545;51.690;5.202;2024-03-02T14:47:04;5.17;;;1.57;;
74995;SDS011;63545;51.690;5.202;2024-03-02T14:49:29;3.10;;;1.00;;
74995;SDS011;63545;51.690;5.202;2024-03-02T14:51:55;3.83;;;1.60;;
74995;SDS011;63545;51.690;5.202;2024-03-02T14:54:20;4.17;;;1.30;;